sensor_id;sensor_type;location;lat;lon;timestamp;P1;durP1;ratioP1;P2;durP2;ratioP2
7747;SDS011;3918;42.564;23.164;2023-04-21T04:01:50;17.05;;;10.88;;
7747;SDS011;3918;42.564;23.164;2023-04-21T04:04:38;15.10;;;11.07;;
7747;SDS011;3918;42.564;23.164;2023-04-21T04:07:05;16.58;;;11.20;;
7747;SDS011;3918;42.564;23.164;2023-04-21T04:09:32;15.30;;;11.35;;
7747;SDS011;3918;42.564;23.164;2023-04-21T04:12:00;20.25;;;11.18;;
7747;SDS011;3918;42.564;23.164;2023-04-21T04:14:27;16.20;;;11.48;;
7747;SDS011;3918;42.564;23.164;2023-04-21T04:16:56;22.15;;;12.23;;
7747;SDS011;3918;42.564;23.164;2023-04-21T04:19:37;16.27;;;11.55;;
7747;SDS011;3918;42.564;23.164;2023-04-21T04:22:04;15.48;;;11.25;;
7747;SDS011;3918;42.564;23.164;2023-04-21T04:24:32;15.15;;;11.20;;
7747;SDS011;3918;42.564;23.164;2023-04-21T04:27:13;18.63;;;11.63;;
7747;SDS011;3918;42.564;23.164;2023-04-21T04:29:40;18.13;;;11.57;;
7747;SDS011;3918;42.564;23.164;2023-04-21T04:32:09;15.68;;;11.35;;
7747;SDS011;3918;42.564;23.164;2023-04-21T04:34:50;14.73;;;11.45;;
7747;SDS011;3918;42.564;23.164;2023-04-21T04:37:17;15.75;;;11.57;;
7747;SDS011;3918;42.564;23.164;2023-04-21T04:40:04;22.77;;;13.38;;
7747;SDS011;3918;42.564;23.164;2023-04-21T04:42:46;18.63;;;13.18;;
7747;SDS011;3918;42.564;23.164;2023-04-21T04:45:28;19.30;;;14.25;;
7747;SDS011;3918;42.564;23.164;2023-04-21T04:47:58;17.98;;;12.30;;
7747;SDS011;3918;42.564;23.164;2023-04-21T04:50:46;38.47;;;19.50;;
7747;SDS011;3918;42.564;23.164;2023-04-21T04:53:13;13.23;;;9.88;;
7747;SDS011;3918;42.564;23.164;2023-04-21T04:55:40;14.52;;;11.45;;
7747;SDS011;3918;42.564;23.164;2023-04-21T04:58:06;16.50;;;10.45;;
7747;SDS011;3918;42.564;23.164;2023-04-21T05:00:47;13.40;;;9.45;;
7747;SDS011;3918;42.564;23.164;2023-04-21T05:06:43;15.55;;;9.50;;
7747;SDS011;3918;42.564;23.164;2023-04-21T05:09:53;11.98;;;8.52;;
7747;SDS011;3918;42.564;23.164;2023-04-21T05:12:20;13.60;;;9.20;;
7747;SDS011;3918;42.564;23.164;2023-04-21T05:14:47;13.18;;;8.88;;
7747;SDS011;3918;42.564;23.164;2023-04-21T05:17:14;12.35;;;8.85;;
7747;SDS011;3918;42.564;23.164;2023-04-21T05:19:41;11.43;;;8.57;;
7747;SDS011;3918;42.564;23.164;2023-04-21T05:22:28;10.70;;;8.18;;
7747;SDS011;3918;42.564;23.164;2023-04-21T05:25:09;10.15;;;7.72;;
7747;SDS011;3918;42.564;23.164;2023-04-21T05:27:56;11.77;;;8.43;;
7747;SDS011;3918;42.564;23.164;2023-04-21T05:30:23;10.30;;;8.10;;
7747;SDS011;3918;42.564;23.164;2023-04-21T05:32:51;9.57;;;7.65;;
7747;SDS011;3918;42.564;23.164;2023-04-21T05:35:18;11.23;;;8.30;;
7747;SDS011;3918;42.564;23.164;2023-04-21T05:37:46;9.15;;;8.02;;
7747;SDS011;3918;42.564;23.164;2023-04-21T05:40:13;16.05;;;8.25;;
7747;SDS011;3918;42.564;23.164;2023-04-21T05:42:43;9.60;;;6.80;;
7747;SDS011;3918;42.564;23.164;2023-04-21T05:45:10;12.55;;;7.82;;
7747;SDS011;3918;42.564;23.164;2023-04-21T05:47:38;10.80;;;8.32;;
7747;SDS011;3918;42.564;23.164;2023-04-21T05:50:05;9.50;;;7.78;;
7747;SDS011;3918;42.564;23.164;2023-04-21T05:52:32;12.63;;;7.30;;
7747;SDS011;3918;42.564;23.164;2023-04-21T05:55:03;9.13;;;7.55;;
7747;SDS011;3918;42.564;23.164;2023-04-21T05:57:44;10.73;;;6.93;;
7747;SDS011;3918;42.564;23.164;2023-04-21T06:00:11;9.82;;;7.30;;
7747;SDS011;3918;42.564;23.164;2023-04-21T06:02:39;9.82;;;7.40;;
7747;SDS011;3918;42.564;23.164;2023-04-21T06:05:06;9.48;;;7.47;;
7747;SDS011;3918;42.564;23.164;2023-04-21T06:07:39;11.27;;;7.88;;
7747;SDS011;3918;42.564;23.164;2023-04-21T06:10:08;10.80;;;7.97;;
7747;SDS011;3918;42.564;23.164;2023-04-21T06:12:49;8.88;;;7.55;;
7747;SDS011;3918;42.564;23.164;2023-04-21T06:15:16;10.98;;;7.68;;
7747;SDS011;3918;42.564;23.164;2023-04-21T06:17:43;9.93;;;7.53;;
7747;SDS011;3918;42.564;23.164;2023-04-21T06:20:11;11.90;;;7.15;;
7747;SDS011;3918;42.564;23.164;2023-04-21T06:22:38;9.40;;;7.32;;
7747;SDS011;3918;42.564;23.164;2023-04-21T06:25:05;10.77;;;7.43;;
7747;SDS011;3918;42.564;23.164;2023-04-21T06:27:34;12.88;;;7.93;;
7747;SDS011;3918;42.564;23.164;2023-04-21T06:30:01;10.93;;;7.75;;
7747;SDS011;3918;42.564;23.164;2023-04-21T06:32:28;14.93;;;7.70;;
7747;SDS011;3918;42.564;23.164;2023-04-21T06:35:09;11.25;;;7.38;;
7747;SDS011;3918;42.564;23.164;2023-04-21T06:37:39;15.38;;;8.07;;
7747;SDS011;3918;42.564;23.164;2023-04-21T06:40:06;9.55;;;7.25;;
7747;SDS011;3918;42.564;23.164;2023-04-21T06:42:49;11.88;;;7.47;;
7747;SDS011;3918;42.564;23.164;2023-04-21T06:45:16;12.43;;;7.93;;
7747;SDS011;3918;42.564;23.164;2023-04-21T06:47:43;9.77;;;7.18;;
7747;SDS011;3918;42.564;23.164;2023-04-21T06:50:12;12.85;;;7.63;;
7747;SDS011;3918;42.564;23.164;2023-04-21T06:52:52;10.45;;;7.18;;
7747;SDS011;3918;42.564;23.164;2023-04-21T06:55:21;10.65;;;6.43;;
7747;SDS011;3918;42.564;23.164;2023-04-21T06:58:02;6.88;;;5.97;;
7747;SDS011;3918;42.564;23.164;2023-04-21T07:00:42;9.25;;;6.55;;
7747;SDS011;3918;42.564;23.164;2023-04-21T07:03:09;9.70;;;6.35;;
7747;SDS011;3918;42.564;23.164;2023-04-21T10:53:08;11.23;;;3.67;;
7747;SDS011;3918;42.564;23.164;2023-04-21T10:56:13;15.70;;;3.70;;
7747;SDS011;3918;42.564;23.164;2023-04-21T10:58:54;12.40;;;3.45;;
7747;SDS011;3918;42.564;23.164;2023-04-21T11:01:22;3.95;;;3.25;;
7747;SDS011;3918;42.564;23.164;2023-04-21T11:03:50;9.45;;;2.92;;
7747;SDS011;3918;42.564;23.164;2023-04-21T11:06:30;5.45;;;3.22;;
7747;SDS011;3918;42.564;23.164;2023-04-21T11:09:16;4.80;;;3.40;;
7747;SDS011;3918;42.564;23.164;2023-04-21T11:11:57;9.45;;;4.00;;
7747;SDS011;3918;42.564;23.164;2023-04-21T11:14:39;3.97;;;3.67;;
7747;SDS011;3918;42.564;23.164;2023-04-21T11:17:22;5.97;;;4.13;;
7747;SDS011;3918;42.564;23.164;2023-04-21T11:19:50;5.38;;;3.70;;
7747;SDS011;3918;42.564;23.164;2023-04-21T11:22:19;13.82;;;3.85;;
7747;SDS011;3918;42.564;23.164;2023-04-21T11:25:14;10.60;;;3.67;;
7747;SDS011;3918;42.564;23.164;2023-04-21T11:28:46;4.72;;;3.00;;
7747;SDS011;3918;42.564;23.164;2023-04-21T11:31:27;4.95;;;3.03;;
7747;SDS011;3918;42.564;23.164;2023-04-21T11:34:09;3.25;;;2.40;;
7747;SDS011;3918;42.564;23.164;2023-04-21T11:36:51;3.60;;;2.92;;
7747;SDS011;3918;42.564;23.164;2023-04-21T11:39:19;2.75;;;2.55;;
7747;SDS011;3918;42.564;23.164;2023-04-21T11:41:49;7.03;;;2.85;;
7747;SDS011;3918;42.564;23.164;2023-04-21T11:44:31;7.10;;;3.80;;
7747;SDS011;3918;42.564;23.164;2023-04-21T11:47:19;5.28;;;3.78;;
7747;SDS011;3918;42.564;23.164;2023-04-21T11:50:00;7.00;;;3.70;;
7747;SDS011;3918;42.564;23.164;2023-04-21T11:52:28;5.70;;;3.20;;
7747;SDS011;3918;42.564;23.164;2023-04-21T11:55:11;5.57;;;3.72;;
7747;SDS011;3918;42.564;23.164;2023-04-21T11:57:46;9.05;;;4.30;;
7747;SDS011;3918;42.564;23.164;2023-04-21T12:00:29;6.55;;;3.75;;
7747;SDS011;3918;42.564;23.164;2023-04-21T12:02:56;6.45;;;3.85;;
7747;SDS011;3918;42.564;23.164;2023-04-21T12:05:36;4.53;;;3.97;;
7747;SDS011;3918;42.564;23.164;2023-04-21T12:08:04;11.13;;;4.68;;
7747;SDS011;3918;42.564;23.164;2023-04-21T12:10:31;5.00;;;3.28;;
7747;SDS011;3918;42.564;23.164;2023-04-21T12:13:00;4.75;;;3.13;;
7747;SDS011;3918;42.564;23.164;2023-04-21T12:15:42;6.82;;;3.15;;
7747;SDS011;3918;42.564;23.164;2023-04-21T12:18:11;5.38;;;3.83;;
7747;SDS011;3918;42.564;23.164;2023-04-21T12:20:38;7.43;;;3.42;;
7747;SDS011;3918;42.564;23.164;2023-04-21T12:23:26;5.70;;;3.42;;
7747;SDS011;3918;42.564;23.164;2023-04-21T12:25:54;3.97;;;3.58;;
7747;SDS011;3918;42.564;23.164;2023-04-21T12:28:23;4.28;;;3.40;;
7747;SDS011;3918;42.564;23.164;2023-04-21T12:32:06;5.18;;;3.97;;
7747;SDS011;3918;42.564;23.164;2023-04-21T12:34:48;4.18;;;3.50;;
7747;SDS011;3918;42.564;23.164;2023-04-21T12:37:29;3.85;;;3.35;;
7747;SDS011;3918;42.564;23.164;2023-04-21T12:40:10;4.53;;;3.20;;
7747;SDS011;3918;42.564;23.164;2023-04-21T12:42:51;7.22;;;3.60;;
7747;SDS011;3918;42.564;23.164;2023-04-21T12:45:21;5.25;;;3.78;;
7747;SDS011;3918;42.564;23.164;2023-04-21T12:48:07;5.57;;;3.80;;
7747;SDS011;3918;42.564;23.164;2023-04-21T12:50:34;6.63;;;4.13;;
7747;SDS011;3918;42.564;23.164;2023-04-21T12:53:01;5.97;;;3.30;;
7747;SDS011;3918;42.564;23.164;2023-04-21T12:55:28;5.47;;;3.42;;
7747;SDS011;3918;42.564;23.164;2023-04-21T12:57:55;8.70;;;3.47;;
7747;SDS011;3918;42.564;23.164;2023-04-21T13:03:53;6.00;;;3.90;;
7747;SDS011;3918;42.564;23.164;2023-04-21T13:06:34;7.88;;;3.17;;
7747;SDS011;3918;42.564;23.164;2023-04-21T13:09:00;3.70;;;3.17;;
7747;SDS011;3918;42.564;23.164;2023-04-21T13:11:27;10.55;;;4.53;;
7747;SDS011;3918;42.564;23.164;2023-04-21T13:13:54;8.35;;;3.97;;
7747;SDS011;3918;42.564;23.164;2023-04-21T13:16:22;6.47;;;4.43;;
7747;SDS011;3918;42.564;23.164;2023-04-21T13:18:49;13.93;;;4.85;;
7747;SDS011;3918;42.564;23.164;2023-04-21T13:21:18;4.68;;;3.70;;
7747;SDS011;3918;42.564;23.164;2023-04-21T13:23:46;3.92;;;3.50;;
7747;SDS011;3918;42.564;23.164;2023-04-21T13:26:17;5.13;;;3.63;;
7747;SDS011;3918;42.564;23.164;2023-04-21T13:28:44;4.70;;;3.70;;
7747;SDS011;3918;42.564;23.164;2023-04-21T13:31:11;6.25;;;3.80;;
7747;SDS011;3918;42.564;23.164;2023-04-21T13:33:39;9.63;;;4.20;;
7747;SDS011;3918;42.564;23.164;2023-04-21T13:36:06;5.43;;;3.67;;
7747;SDS011;3918;42.564;23.164;2023-04-21T13:38:57;10.85;;;3.42;;
7747;SDS011;3918;42.564;23.164;2023-04-21T13:41:41;3.15;;;2.95;;
7747;SDS011;3918;42.564;23.164;2023-04-21T13:44:08;8.57;;;2.95;;
7747;SDS011;3918;42.564;23.164;2023-04-21T13:46:36;8.10;;;3.42;;
7747;SDS011;3918;42.564;23.164;2023-04-21T13:49:04;9.43;;;3.88;;
7747;SDS011;3918;42.564;23.164;2023-04-21T13:51:32;9.18;;;3.58;;
7747;SDS011;3918;42.564;23.164;2023-04-21T13:54:08;3.63;;;3.20;;
7747;SDS011;3918;42.564;23.164;2023-04-21T14:00:38;3.65;;;2.90;;
7747;SDS011;3918;42.564;23.164;2023-04-21T14:03:05;30.90;;;3.90;;
7747;SDS011;3918;42.564;23.164;2023-04-21T14:05:46;4.47;;;3.10;;
7747;SDS011;3918;42.564;23.164;2023-04-21T14:08:29;4.80;;;3.13;;
7747;SDS011;3918;42.564;23.164;2023-04-21T14:10:59;4.63;;;3.03;;
7747;SDS011;3918;42.564;23.164;2023-04-21T14:14:02;5.00;;;3.00;;
7747;SDS011;3918;42.564;23.164;2023-04-21T14:16:42;11.15;;;3.05;;
7747;SDS011;3918;42.564;23.164;2023-04-21T14:19:23;3.17;;;2.90;;
7747;SDS011;3918;42.564;23.164;2023-04-21T14:22:04;8.55;;;3.03;;
7747;SDS011;3918;42.564;23.164;2023-04-21T14:24:31;6.45;;;2.90;;
7747;SDS011;3918;42.564;23.164;2023-04-21T14:27:18;9.82;;;3.20;;
7747;SDS011;3918;42.564;23.164;2023-04-21T14:30:40;7.55;;;2.97;;
7747;SDS011;3918;42.564;23.164;2023-04-21T14:33:20;5.32;;;3.33;;
7747;SDS011;3918;42.564;23.164;2023-04-21T14:36:07;19.80;;;3.45;;
7747;SDS011;3918;42.564;23.164;2023-04-21T14:38:35;4.75;;;3.10;;
7747;SDS011;3918;42.564;23.164;2023-04-21T14:41:03;11.57;;;3.92;;
7747;SDS011;3918;42.564;23.164;2023-04-21T14:43:31;29.30;;;4.25;;
7747;SDS011;3918;42.564;23.164;2023-04-21T14:46:14;8.18;;;4.43;;
7747;SDS011;3918;42.564;23.164;2023-04-21T14:48:41;5.97;;;3.85;;
7747;SDS011;3918;42.564;23.164;2023-04-21T14:51:12;3.33;;;3.10;;
7747;SDS011;3918;42.564;23.164;2023-04-21T14:53:39;9.98;;;3.78;;
7747;SDS011;3918;42.564;23.164;2023-04-21T14:56:06;9.77;;;3.50;;
7747;SDS011;3918;42.564;23.164;2023-04-21T14:58:36;24.25;;;5.35;;
7747;SDS011;3918;42.564;23.164;2023-04-21T15:01:17;14.88;;;4.18;;
7747;SDS011;3918;42.564;23.164;2023-04-21T15:03:44;4.35;;;3.95;;
7747;SDS011;3918;42.564;23.164;2023-04-21T15:06:11;11.63;;;3.50;;
7747;SDS011;3918;42.564;23.164;2023-04-21T15:08:58;6.60;;;3.70;;
7747;SDS011;3918;42.564;23.164;2023-04-21T15:11:25;6.93;;;3.70;;
7747;SDS011;3918;42.564;23.164;2023-04-21T15:17:11;8.00;;;3.80;;
7747;SDS011;3918;42.564;23.164;2023-04-21T15:19:52;6.10;;;3.63;;
7747;SDS011;3918;42.564;23.164;2023-04-21T15:22:33;6.35;;;3.90;;
7747;SDS011;3918;42.564;23.164;2023-04-21T15:25:00;16.15;;;3.97;;
7747;SDS011;3918;42.564;23.164;2023-04-21T15:27:27;5.72;;;3.95;;
7747;SDS011;3918;42.564;23.164;2023-04-21T15:29:54;9.35;;;3.90;;
7747;SDS011;3918;42.564;23.164;2023-04-21T15:32:37;7.95;;;3.97;;
7747;SDS011;3918;42.564;23.164;2023-04-21T15:35:18;6.88;;;4.15;;
7747;SDS011;3918;42.564;23.164;2023-04-21T15:37:59;3.88;;;3.45;;
7747;SDS011;3918;42.564;23.164;2023-04-21T15:40:40;7.00;;;3.63;;
7747;SDS011;3918;42.564;23.164;2023-04-21T15:43:07;5.60;;;3.70;;
7747;SDS011;3918;42.564;23.164;2023-04-21T15:45:34;4.47;;;3.80;;
7747;SDS011;3918;42.564;23.164;2023-04-21T15:48:03;3.92;;;3.53;;
7747;SDS011;3918;42.564;23.164;2023-04-21T15:50:43;13.73;;;4.88;;
7747;SDS011;3918;42.564;23.164;2023-04-21T15:53:10;6.30;;;4.25;;
7747;SDS011;3918;42.564;23.164;2023-04-21T15:55:39;9.98;;;6.80;;
7747;SDS011;3918;42.564;23.164;2023-04-21T15:58:06;5.40;;;4.10;;
7747;SDS011;3918;42.564;23.164;2023-04-21T16:00:33;11.30;;;5.18;;
7747;SDS011;3918;42.564;23.164;2023-04-21T16:03:23;5.15;;;4.00;;
7747;SDS011;3918;42.564;23.164;2023-04-21T16:06:29;13.15;;;4.30;;
7747;SDS011;3918;42.564;23.164;2023-04-21T16:08:57;6.80;;;4.13;;
7747;SDS011;3918;42.564;23.164;2023-04-21T16:11:44;6.75;;;3.70;;
7747;SDS011;3918;42.564;23.164;2023-04-21T16:14:14;7.03;;;3.40;;
7747;SDS011;3918;42.564;23.164;2023-04-21T16:16:55;7.32;;;3.53;;
7747;SDS011;3918;42.564;23.164;2023-04-21T16:19:25;8.77;;;4.30;;
7747;SDS011;3918;42.564;23.164;2023-04-21T16:22:06;5.25;;;3.72;;
7747;SDS011;3918;42.564;23.164;2023-04-21T16:25:05;7.63;;;3.58;;
7747;SDS011;3918;42.564;23.164;2023-04-21T16:27:46;5.25;;;3.50;;
7747;SDS011;3918;42.564;23.164;2023-04-21T16:30:27;5.38;;;3.60;;
7747;SDS011;3918;42.564;23.164;2023-04-21T16:33:08;5.72;;;3.40;;
7747;SDS011;3918;42.564;23.164;2023-04-21T16:35:54;4.40;;;3.72;;
7747;SDS011;3918;42.564;23.164;2023-04-21T16:38:58;5.32;;;3.78;;
7747;SDS011;3918;42.564;23.164;2023-04-21T16:41:27;8.23;;;4.30;;
7747;SDS011;3918;42.564;23.164;2023-04-21T16:44:07;9.05;;;4.47;;
7747;SDS011;3918;42.564;23.164;2023-04-21T16:46:48;10.40;;;4.18;;
7747;SDS011;3918;42.564;23.164;2023-04-21T16:49:55;7.50;;;3.92;;
7747;SDS011;3918;42.564;23.164;2023-04-21T16:52:24;17.67;;;4.32;;
7747;SDS011;3918;42.564;23.164;2023-04-21T16:54:51;8.85;;;3.45;;
7747;SDS011;3918;42.564;23.164;2023-04-21T16:57:32;3.45;;;2.90;;
